臺北飛航情報區 - 海峽席

METAR RCTP 251200Z 05019KT 9999 VCSH FEW008 BKN014 BKN020 26/23 Q1011 NOSIG RMK A2986=

站台狀態:Online
最後更新:2022-09-25 20:00:01